Time;durP1;ratioP1;P1;durP2;ratioP2;P2;SDS_P1;SDS_P2;PMS_P1;PMS_P2;Temp;Humidity;BMP_temperature;BMP_pressure;BME280_temperature;BME280_humidity;BME280_pressure;Samples;Min_cycle;Max_cycle;Signal;HPM_P1;HPM_P2
2024/01/11 00:00:35;;;;;;;45.13;22.30;;;-4.10;99.90;;;;;;5015184;28;20046;-70
2024/01/11 00:03:00;;;;;;;44.70;20.93;;;-4.20;99.90;;;;;;5016125;28;20042;-70
2024/01/11 00:05:26;;;;;;;43.47;21.43;;;-4.20;99.90;;;;;;5015608;28;20396;-70
2024/01/11 00:07:52;;;;;;;43.87;22.23;;;-4.20;99.90;;;;;;5015447;28;20412;-70
2024/01/11 00:10:18;;;;;;;44.77;23.90;;;-4.20;99.90;;;;;;5015191;28;20092;-70
2024/01/11 00:12:43;;;;;;;46.30;21.83;;;-4.20;99.90;;;;;;5015378;28;20042;-70
2024/01/11 00:15:09;;;;;;;48.17;23.63;;;-4.30;99.90;;;;;;5023009;28;20034;-70
2024/01/11 00:17:36;;;;;;;48.40;23.40;;;-4.30;99.90;;;;;;5034520;23;20483;-70
2024/01/11 00:20:02;;;;;;;46.10;21.87;;;-4.30;99.90;;;;;;5045722;28;20041;-70
2024/01/11 00:22:28;;;;;;;51.40;23.60;;;-4.30;99.90;;;;;;5037124;28;20123;-70
2024/01/11 00:24:53;;;;;;;49.07;24.90;;;-4.30;99.90;;;;;;5037298;28;20129;-70
2024/01/11 00:27:19;;;;;;;45.33;23.43;;;-4.30;99.90;;;;;;5053685;28;20068;-70
2024/01/11 00:29:44;;;;;;;45.63;23.60;;;-4.30;99.90;;;;;;5041375;28;20037;-70
2024/01/11 00:32:10;;;;;;;51.67;25.00;;;-4.30;99.90;;;;;;5051386;28;20033;-70
2024/01/11 00:34:35;;;;;;;51.50;23.93;;;-4.30;99.90;;;;;;5049641;28;20116;-70
2024/01/11 00:37:02;;;;;;;46.67;23.90;;;-4.40;99.90;;;;;;5051177;28;20491;-70
2024/01/11 00:39:29;;;;;;;45.13;22.63;;;-4.30;99.90;;;;;;5050681;28;20446;-70
2024/01/11 00:41:54;;;;;;;44.07;21.47;;;-4.40;99.90;;;;;;5041166;28;20033;-70
2024/01/11 00:44:20;;;;;;;46.90;22.70;;;-4.40;99.90;;;;;;5046069;28;20068;-70
2024/01/11 00:46:46;;;;;;;50.57;24.17;;;-4.40;99.90;;;;;;5046758;28;20045;-70
2024/01/11 00:49:11;;;;;;;52.93;23.90;;;-4.40;99.90;;;;;;5052560;28;20052;-70
2024/01/11 00:51:37;;;;;;;47.27;22.30;;;-4.40;99.90;;;;;;5053625;28;20032;-70
2024/01/11 00:54:02;;;;;;;44.30;20.57;;;-4.40;99.90;;;;;;5046094;28;20442;-70
2024/01/11 00:56:28;;;;;;;49.07;22.80;;;-4.50;99.90;;;;;;5041353;28;20037;-70
2024/01/11 00:58:53;;;;;;;45.30;21.47;;;-4.50;99.90;;;;;;5048780;28;20087;-70
2024/01/11 01:01:19;;;;;;;47.80;23.40;;;-4.50;99.90;;;;;;5045782;28;20449;-70
2024/01/11 01:03:45;;;;;;;53.90;25.57;;;-4.50;99.90;;;;;;5051552;28;20171;-70
2024/01/11 01:06:11;;;;;;;52.33;25.87;;;-4.50;99.90;;;;;;5033790;28;20623;-70
2024/01/11 01:08:36;;;;;;;56.73;26.00;;;-4.50;99.90;;;;;;5032177;28;20550;-70
2024/01/11 01:11:02;;;;;;;51.60;24.10;;;-4.50;99.90;;;;;;5024399;28;20029;-70
2024/01/11 01:13:27;;;;;;;48.17;24.47;;;-4.50;99.90;;;;;;5023888;28;20040;-70
2024/01/11 01:15:53;;;;;;;55.00;24.17;;;-4.60;99.90;;;;;;5028009;28;20033;-70
2024/01/11 01:18:18;;;;;;;50.43;26.40;;;-4.60;99.90;;;;;;5026546;28;20049;-70
2024/01/11 01:20:44;;;;;;;52.70;24.93;;;-4.60;99.90;;;;;;5031499;28;20120;-70
2024/01/11 01:23:10;;;;;;;48.67;23.23;;;-4.60;99.90;;;;;;5033917;28;20045;-70
2024/01/11 01:25:35;;;;;;;47.00;21.20;;;-4.60;99.90;;;;;;5033484;28;20045;-70
2024/01/11 01:28:01;;;;;;;52.87;24.50;;;-4.60;99.90;;;;;;5029117;28;20045;-70
2024/01/11 01:30:27;;;;;;;53.10;24.13;;;-4.50;99.90;;;;;;5031552;28;20032;-70
2024/01/11 01:32:53;;;;;;;50.33;23.07;;;-4.60;99.90;;;;;;5031000;28;20206;-70
2024/01/11 01:35:19;;;;;;;49.90;23.20;;;-4.60;99.90;;;;;;5036387;28;20056;-70
2024/01/11 01:37:44;;;;;;;54.53;24.60;;;-4.60;99.90;;;;;;5035033;28;20040;-70
2024/01/11 01:40:11;;;;;;;52.67;24.80;;;-4.60;99.90;;;;;;5030692;28;20029;-70
2024/01/11 01:42:44;;;;;;;53.33;25.20;;;-4.60;99.90;;;;;;5025712;28;20411;-70
2024/01/11 01:45:09;;;;;;;49.97;24.20;;;-4.60;99.90;;;;;;5027159;28;20108;-70
2024/01/11 01:47:36;;;;;;;51.57;24.30;;;-4.60;99.90;;;;;;5027382;28;20117;-70
2024/01/11 01:50:02;;;;;;;53.40;24.77;;;-4.60;99.90;;;;;;5027518;28;20037;-70
2024/01/11 01:52:29;;;;;;;59.97;24.90;;;-4.60;99.90;;;;;;5036392;28;20037;-70
2024/01/11 01:54:56;;;;;;;52.07;23.27;;;-4.60;99.90;;;;;;5033313;28;20116;-70
2024/01/11 01:57:22;;;;;;;53.50;25.33;;;-4.60;99.90;;;;;;5039082;28;20526;-70
2024/01/11 01:59:51;;;;;;;53.03;23.60;;;-4.60;99.90;;;;;;5026483;28;20041;-70
2024/01/11 02:02:16;;;;;;;57.07;23.77;;;-4.60;99.90;;;;;;5028260;28;20068;-70
2024/01/11 02:04:42;;;;;;;50.43;25.70;;;-4.60;99.90;;;;;;5022172;28;20074;-70
2024/01/11 02:07:08;;;;;;;46.00;23.00;;;-4.60;99.90;;;;;;5025350;28;20045;-70
2024/01/11 02:09:36;;;;;;;50.03;24.33;;;-4.60;99.90;;;;;;5022661;28;20038;-70
2024/01/11 02:12:03;;;;;;;54.33;24.30;;;-4.60;99.90;;;;;;5026819;28;20124;-71
2024/01/11 02:14:29;;;;;;;58.07;25.63;;;-4.60;99.90;;;;;;5021929;28;20037;-70
2024/01/11 02:16:54;;;;;;;56.23;24.60;;;-4.60;99.90;;;;;;5009112;28;20561;-70
2024/01/11 02:19:20;;;;;;;52.97;26.10;;;-4.60;99.90;;;;;;5025491;28;20067;-70
2024/01/11 02:21:50;;;;;;;57.60;25.43;;;-4.60;99.90;;;;;;5036656;28;20037;-70
2024/01/11 02:24:15;;;;;;;54.17;24.67;;;-4.60;99.90;;;;;;5037981;28;20045;-70
2024/01/11 02:27:08;;;;;;;52.77;25.03;;;-4.60;99.90;;;;;;5038391;28;20077;-71
2024/01/11 02:29:34;;;;;;;52.63;25.00;;;-4.60;99.90;;;;;;5037166;28;20113;-71
2024/01/11 02:32:02;;;;;;;57.03;25.13;;;-4.60;99.90;;;;;;5044041;28;20069;-71
2024/01/11 02:34:28;;;;;;;53.23;24.63;;;-4.60;99.90;;;;;;5023860;28;20064;-70
2024/01/11 02:36:54;;;;;;;55.07;26.40;;;-4.60;99.90;;;;;;5043668;28;20072;-70
2024/01/11 02:39:20;;;;;;;53.50;25.47;;;-4.60;99.90;;;;;;5047557;28;20048;-70
2024/01/11 02:41:49;;;;;;;58.17;24.80;;;-4.60;99.90;;;;;;5037785;28;20077;-70
2024/01/11 02:44:15;;;;;;;53.60;24.53;;;-4.60;99.90;;;;;;5033228;28;20094;-71
2024/01/11 02:46:40;;;;;;;57.60;26.90;;;-4.50;99.90;;;;;;5044274;28;20049;-71
2024/01/11 02:49:06;;;;;;;56.80;26.93;;;-4.50;99.90;;;;;;5043601;28;20053;-71
2024/01/11 02:51:31;;;;;;;48.47;23.80;;;-4.50;99.90;;;;;;5047113;28;20041;-71
2024/01/11 02:53:57;;;;;;;53.50;26.97;;;-4.50;99.90;;;;;;5038665;28;20042;-70
2024/01/11 02:56:23;;;;;;;55.67;25.43;;;-4.50;99.90;;;;;;5040464;28;20067;-70
2024/01/11 02:58:49;;;;;;;61.40;27.63;;;-4.50;99.90;;;;;;5032324;28;20128;-70
2024/01/11 03:01:14;;;;;;;57.03;26.30;;;-4.50;99.90;;;;;;5034123;28;20044;-70
2024/01/11 03:03:40;;;;;;;54.57;25.93;;;-4.50;99.90;;;;;;5042388;28;20052;-70
2024/01/11 03:06:05;;;;;;;58.47;28.20;;;-4.50;99.90;;;;;;5033817;28;20041;-70
2024/01/11 03:08:31;;;;;;;59.33;27.03;;;-4.50;99.90;;;;;;5052302;28;20056;-70
2024/01/11 03:10:57;;;;;;;55.70;25.33;;;-4.50;99.90;;;;;;5038281;28;20427;-70
2024/01/11 03:13:23;;;;;;;53.87;25.43;;;-4.50;99.90;;;;;;5051820;28;20048;-70
2024/01/11 03:15:48;;;;;;;55.67;26.50;;;-4.50;99.90;;;;;;5045065;28;20434;-70
2024/01/11 03:18:14;;;;;;;58.63;25.90;;;-4.60;99.90;;;;;;5051339;28;20127;-70
2024/01/11 03:20:40;;;;;;;57.93;24.93;;;-4.60;99.90;;;;;;5041889;28;20059;-70
2024/01/11 03:23:05;;;;;;;54.70;25.43;;;-4.60;99.90;;;;;;5052068;28;20060;-70
2024/01/11 03:25:31;;;;;;;50.13;23.27;;;-4.60;99.90;;;;;;5043065;28;20046;-70
2024/01/11 03:27:58;;;;;;;55.27;25.90;;;-4.70;99.90;;;;;;5046204;28;20505;-70
2024/01/11 03:30:24;;;;;;;53.43;25.67;;;-4.60;99.90;;;;;;5027267;28;20063;-70
2024/01/11 03:32:50;;;;;;;54.70;25.27;;;-4.60;99.90;;;;;;5051677;28;20514;-70
2024/01/11 03:35:15;;;;;;;51.77;24.33;;;-4.60;99.90;;;;;;5042891;28;20435;-70
2024/01/11 03:37:41;;;;;;;54.83;24.37;;;-4.70;99.90;;;;;;5037657;28;20060;-70
2024/01/11 03:40:07;;;;;;;55.57;25.13;;;-4.70;99.90;;;;;;5051850;28;20045;-70
2024/01/11 03:42:33;;;;;;;54.67;25.77;;;-4.60;99.90;;;;;;5051870;28;20797;-70
2024/01/11 03:44:58;;;;;;;57.77;25.50;;;-4.60;99.90;;;;;;5039854;28;20038;-70
2024/01/11 03:47:24;;;;;;;59.50;26.43;;;-4.60;99.90;;;;;;5043817;28;20048;-70
2024/01/11 03:49:49;;;;;;;57.33;26.13;;;-4.60;99.90;;;;;;5044303;28;20033;-69
2024/01/11 03:52:15;;;;;;;58.03;24.80;;;-4.60;99.90;;;;;;5034804;28;20176;-69
2024/01/11 03:54:40;;;;;;;55.13;24.87;;;-4.60;99.90;;;;;;5037335;28;20049;-69
2024/01/11 03:57:06;;;;;;;57.83;26.27;;;-4.60;99.90;;;;;;5041454;28;20041;-69
2024/01/11 03:59:32;;;;;;;55.00;26.13;;;-4.60;99.90;;;;;;5046162;28;20041;-69
2024/01/11 04:01:59;;;;;;;61.00;25.77;;;-4.60;99.90;;;;;;5048158;28;20487;-69
2024/01/11 04:04:24;;;;;;;56.00;26.50;;;-4.60;99.90;;;;;;5027394;28;20479;-69
2024/01/11 04:06:52;;;;;;;62.73;28.40;;;-4.60;99.90;;;;;;5043136;28;20047;-70
2024/01/11 04:09:18;;;;;;;60.17;25.77;;;-4.60;99.90;;;;;;5053755;28;20048;-70
2024/01/11 04:11:43;;;;;;;58.23;26.90;;;-4.60;99.90;;;;;;5049691;28;20034;-70
2024/01/11 04:14:09;;;;;;;60.83;26.40;;;-4.60;99.90;;;;;;5053753;28;20036;-70
2024/01/11 04:16:39;;;;;;;65.27;25.60;;;-4.60;99.90;;;;;;5045351;28;20041;-70
2024/01/11 04:19:05;;;;;;;58.83;24.98;;;-4.60;99.90;;;;;;5029831;28;20049;-70
2024/01/11 04:21:31;;;;;;;58.43;26.27;;;-4.60;99.90;;;;;;5053482;28;20041;-70
2024/01/11 04:23:57;;;;;;;60.73;26.80;;;-4.70;99.90;;;;;;5045465;28;20036;-70
2024/01/11 04:26:23;;;;;;;61.33;27.63;;;-4.70;99.90;;;;;;5046960;28;20551;-70
2024/01/11 04:28:50;;;;;;;56.07;25.43;;;-4.70;99.90;;;;;;5042756;28;20120;-70
2024/01/11 04:31:18;;;;;;;54.70;25.00;;;-4.80;99.90;;;;;;5054445;28;20047;-70
2024/01/11 04:33:45;;;;;;;58.50;26.10;;;-4.80;99.90;;;;;;5045106;28;20140;-70
2024/01/11 04:36:12;;;;;;;56.33;24.20;;;-4.80;99.90;;;;;;5052154;28;20509;-70
2024/01/11 04:38:38;;;;;;;57.30;25.60;;;-4.90;99.90;;;;;;5046443;28;20041;-70
2024/01/11 04:41:13;;;;;;;52.27;24.73;;;-4.90;99.90;;;;;;5044836;28;20175;-70
2024/01/11 04:43:44;;;;;;;58.63;26.93;;;-4.90;99.90;;;;;;5050585;28;20040;-69
2024/01/11 04:46:17;;;;;;;56.67;26.57;;;-5.00;99.90;;;;;;5046650;28;20107;-69
2024/01/11 04:48:42;;;;;;;62.47;25.70;;;-4.90;99.90;;;;;;5042874;28;20788;-69
2024/01/11 04:51:08;;;;;;;62.00;27.43;;;-4.90;99.90;;;;;;5038045;28;20044;-68
2024/01/11 04:53:37;;;;;;;62.07;28.53;;;-5.00;99.90;;;;;;5040550;28;20040;-69
2024/01/11 04:56:02;;;;;;;56.63;25.13;;;-4.90;99.90;;;;;;5033898;28;20042;-69
2024/01/11 04:58:28;;;;;;;60.13;26.80;;;-4.90;99.90;;;;;;5049115;28;20044;-69
2024/01/11 05:00:53;;;;;;;59.80;26.50;;;-4.90;99.90;;;;;;5034596;28;20123;-69
2024/01/11 05:03:19;;;;;;;57.53;25.27;;;-4.90;99.90;;;;;;5037947;28;20119;-69
2024/01/11 05:05:44;;;;;;;56.73;26.17;;;-4.80;99.90;;;;;;5053016;28;20426;-69
2024/01/11 05:08:10;;;;;;;57.47;26.10;;;-4.80;99.90;;;;;;5040381;28;20384;-69
2024/01/11 05:10:36;;;;;;;59.93;27.73;;;-4.80;99.90;;;;;;5035596;28;20044;-69
2024/01/11 05:13:01;;;;;;;61.37;25.93;;;-4.80;99.90;;;;;;5050251;28;20190;-69
2024/01/11 05:15:27;;;;;;;65.57;27.83;;;-4.80;99.90;;;;;;5037191;28;20045;-69
2024/01/11 05:17:54;;;;;;;63.30;26.00;;;-4.90;99.90;;;;;;5045739;28;20041;-69
2024/01/11 05:20:20;;;;;;;59.80;27.33;;;-4.90;99.90;;;;;;5042254;28;20064;-70
2024/01/11 05:22:45;;;;;;;59.80;26.90;;;-4.80;99.90;;;;;;5048127;28;20170;-69
2024/01/11 05:25:11;;;;;;;65.80;26.63;;;-4.90;99.90;;;;;;5053643;28;20112;-69
2024/01/11 05:27:37;;;;;;;62.00;26.43;;;-4.80;99.90;;;;;;5042464;28;20484;-69
2024/01/11 05:30:02;;;;;;;67.27;27.67;;;-4.80;99.90;;;;;;5036670;28;20098;-69
2024/01/11 05:32:28;;;;;;;65.03;26.83;;;-4.90;99.90;;;;;;5038596;28;20072;-69
2024/01/11 05:34:53;;;;;;;54.00;25.63;;;-4.90;99.90;;;;;;5053542;28;20066;-69
2024/01/11 05:37:20;;;;;;;66.27;27.27;;;-4.80;99.90;;;;;;5041455;28;20045;-69
2024/01/11 05:39:46;;;;;;;64.87;27.40;;;-4.80;99.90;;;;;;5032767;28;20125;-69
2024/01/11 05:42:12;;;;;;;68.53;28.80;;;-4.80;99.90;;;;;;5034651;28;20116;-69
2024/01/11 05:44:37;;;;;;;59.70;25.10;;;-4.80;99.90;;;;;;5040416;28;20413;-70
2024/01/11 05:47:03;;;;;;;57.47;26.40;;;-4.80;99.90;;;;;;5037953;28;20132;-70
2024/01/11 05:49:29;;;;;;;59.13;27.23;;;-4.70;99.90;;;;;;5033551;28;20164;-70
2024/01/11 05:51:54;;;;;;;56.53;24.07;;;-4.70;99.90;;;;;;5030675;28;20084;-69
2024/01/11 05:54:20;;;;;;;57.50;25.90;;;-4.60;99.90;;;;;;5034485;28;20517;-69
2024/01/11 05:56:45;;;;;;;58.07;24.67;;;-4.60;99.90;;;;;;5035637;28;20061;-69
2024/01/11 05:59:11;;;;;;;53.30;24.17;;;-4.50;99.90;;;;;;5035849;28;20037;-70
2024/01/11 06:01:43;;;;;;;60.47;25.60;;;-4.40;99.90;;;;;;5045024;28;20083;-70
2024/01/11 06:04:09;;;;;;;57.83;25.47;;;-4.30;99.90;;;;;;5052832;28;20483;-70
2024/01/11 06:06:34;;;;;;;54.97;23.90;;;-4.30;99.90;;;;;;5039859;28;20353;-70
2024/01/11 06:09:00;;;;;;;57.53;23.93;;;-4.20;99.90;;;;;;5031213;28;20124;-71
2024/01/11 06:11:25;;;;;;;57.27;24.03;;;-4.10;99.90;;;;;;5042868;28;20075;-69
2024/01/11 06:13:51;;;;;;;54.60;26.73;;;-4.00;99.90;;;;;;5050787;28;20033;-69
2024/01/11 06:16:16;;;;;;;59.00;26.97;;;-4.00;99.90;;;;;;5050684;28;20037;-69
2024/01/11 06:18:42;;;;;;;64.70;26.90;;;-3.90;99.90;;;;;;5032080;28;20037;-68
2024/01/11 06:21:07;;;;;;;58.63;27.77;;;-3.80;99.90;;;;;;5029997;28;20555;-69
2024/01/11 06:23:33;;;;;;;57.00;26.97;;;-3.80;99.90;;;;;;5035141;28;20064;-69
2024/01/11 06:25:59;;;;;;;60.57;25.63;;;-3.80;99.90;;;;;;5039775;28;20047;-69
2024/01/11 06:28:24;;;;;;;61.10;25.70;;;-3.70;99.90;;;;;;5039477;28;20119;-69
2024/01/11 06:30:50;;;;;;;59.80;24.57;;;-3.70;99.90;;;;;;5042876;28;20045;-69
2024/01/11 06:33:16;;;;;;;64.30;27.93;;;-3.60;99.90;;;;;;5045853;28;20080;-69
2024/01/11 06:35:42;;;;;;;62.97;26.83;;;-3.60;99.90;;;;;;5050719;28;20045;-69
2024/01/11 06:38:07;;;;;;;58.47;27.87;;;-3.60;99.90;;;;;;5049579;28;20051;-70
2024/01/11 06:40:33;;;;;;;60.73;28.30;;;-3.50;99.90;;;;;;5045491;28;20041;-70
2024/01/11 06:42:58;;;;;;;64.60;28.60;;;-3.50;99.90;;;;;;5033943;28;20495;-70
2024/01/11 06:45:24;;;;;;;62.03;29.53;;;-3.40;99.90;;;;;;5037274;28;20727;-69
2024/01/11 06:47:49;;;;;;;62.57;27.97;;;-3.40;99.90;;;;;;5050653;28;20395;-69
2024/01/11 06:50:15;;;;;;;66.87;29.03;;;-3.40;99.90;;;;;;5045887;28;20383;-69
2024/01/11 06:52:40;;;;;;;58.90;28.00;;;-3.40;99.90;;;;;;5049279;28;20487;-70
2024/01/11 06:55:07;;;;;;;63.97;28.97;;;-3.40;99.90;;;;;;5047329;28;20452;-70
2024/01/11 06:57:32;;;;;;;60.10;27.90;;;-3.30;99.90;;;;;;5050495;28;20452;-70
2024/01/11 06:59:58;;;;;;;66.60;28.60;;;-3.30;99.90;;;;;;5049712;28;20127;-70
2024/01/11 07:02:23;;;;;;;65.47;28.27;;;-3.30;99.90;;;;;;5050392;28;20391;-70
2024/01/11 07:04:49;;;;;;;63.40;27.90;;;-3.20;99.90;;;;;;5046837;28;20047;-70
2024/01/11 07:07:15;;;;;;;57.23;26.17;;;-3.20;99.90;;;;;;5045337;28;20033;-70
2024/01/11 07:09:40;;;;;;;68.03;29.87;;;-3.20;99.90;;;;;;5050556;28;20041;-70
2024/01/11 07:12:06;;;;;;;64.17;26.97;;;-3.20;99.90;;;;;;5049355;28;20037;-70
2024/01/11 07:14:32;;;;;;;65.57;28.07;;;-3.20;99.90;;;;;;5042772;28;20048;-70
2024/01/11 07:16:57;;;;;;;68.90;29.40;;;-3.10;99.90;;;;;;5041022;28;20088;-70
2024/01/11 07:19:23;;;;;;;67.03;30.50;;;-3.10;99.90;;;;;;5045472;28;20041;-70
2024/01/11 07:21:49;;;;;;;60.47;28.10;;;-3.10;99.90;;;;;;5042781;28;20048;-70
2024/01/11 07:24:15;;;;;;;63.30;29.77;;;-3.10;99.90;;;;;;5038062;28;20091;-70
2024/01/11 07:26:41;;;;;;;62.47;27.43;;;-3.00;99.90;;;;;;5040775;28;20068;-70
2024/01/11 07:29:07;;;;;;;68.23;31.27;;;-3.00;99.90;;;;;;5041366;28;20080;-70
2024/01/11 07:31:32;;;;;;;72.67;30.23;;;-3.00;99.90;;;;;;5049517;28;20033;-70
2024/01/11 07:33:58;;;;;;;68.73;28.77;;;-3.00;99.90;;;;;;5047001;28;20061;-70
2024/01/11 07:36:23;;;;;;;63.57;27.93;;;-3.00;99.90;;;;;;5049598;28;20036;-70
2024/01/11 07:38:49;;;;;;;64.13;27.60;;;-3.00;99.90;;;;;;5052483;28;20399;-69
2024/01/11 07:41:14;;;;;;;61.20;28.47;;;-3.00;99.90;;;;;;5042778;28;20136;-68
2024/01/11 07:43:40;;;;;;;61.83;28.53;;;-2.90;99.90;;;;;;5036295;28;20041;-68
2024/01/11 07:46:07;;;;;;;69.30;30.77;;;-2.90;99.90;;;;;;5042589;28;20057;-69
2024/01/11 07:48:33;;;;;;;67.60;27.93;;;-2.90;99.90;;;;;;5042752;28;20048;-69
2024/01/11 07:50:59;;;;;;;65.30;30.10;;;-2.90;99.90;;;;;;5033990;28;20034;-68
2024/01/11 07:53:25;;;;;;;69.27;29.87;;;-2.80;99.90;;;;;;5039522;28;20411;-68
2024/01/11 07:55:52;;;;;;;67.93;29.20;;;-2.80;99.90;;;;;;5038018;28;20034;-69
2024/01/11 07:58:18;;;;;;;62.87;29.70;;;-2.80;99.90;;;;;;5038692;28;20045;-69
2024/01/11 08:00:44;;;;;;;64.47;27.83;;;-2.70;99.90;;;;;;5043964;28;20045;-69
2024/01/11 08:03:10;;;;;;;64.70;29.03;;;-2.70;99.90;;;;;;5043421;28;20041;-69
2024/01/11 08:05:36;;;;;;;66.97;28.73;;;-2.70;99.90;;;;;;5048745;28;20132;-69
2024/01/11 08:08:03;;;;;;;66.63;29.43;;;-2.70;99.90;;;;;;5034312;28;20115;-69
2024/01/11 08:10:30;;;;;;;64.80;26.63;;;-2.70;99.90;;;;;;5052087;28;20037;-69
2024/01/11 08:12:56;;;;;;;60.43;28.03;;;-2.60;99.90;;;;;;5043640;28;20037;-69
2024/01/11 08:15:21;;;;;;;65.50;28.00;;;-2.60;99.90;;;;;;5047534;28;20032;-69
2024/01/11 08:17:48;;;;;;;69.23;29.80;;;-2.50;99.90;;;;;;5052794;28;20052;-69
2024/01/11 08:20:13;;;;;;;67.27;30.40;;;-2.60;99.90;;;;;;5049463;28;20037;-69
2024/01/11 08:22:43;;;;;;;69.67;29.50;;;-2.50;99.90;;;;;;5047318;28;20120;-69
2024/01/11 08:25:09;;;;;;;66.33;28.20;;;-2.50;99.90;;;;;;5050277;28;20045;-69
2024/01/11 08:27:35;;;;;;;62.70;28.77;;;-2.50;99.90;;;;;;5043444;28;20045;-69
2024/01/11 08:30:00;;;;;;;65.53;30.13;;;-2.40;99.90;;;;;;5043297;28;20042;-69
2024/01/11 08:32:26;;;;;;;64.37;28.07;;;-2.40;99.90;;;;;;5036126;28;20034;-69
2024/01/11 08:34:52;;;;;;;69.00;30.07;;;-2.40;99.90;;;;;;5036915;28;20075;-69
2024/01/11 08:37:17;;;;;;;69.10;30.53;;;-2.40;99.90;;;;;;5046932;28;20075;-69
2024/01/11 08:39:43;;;;;;;67.83;29.47;;;-2.30;99.90;;;;;;5042523;28;20041;-69
2024/01/11 08:42:09;;;;;;;68.17;29.63;;;-2.30;99.90;;;;;;5039512;28;20044;-69
2024/01/11 08:44:34;;;;;;;73.17;30.87;;;-2.30;99.90;;;;;;5042707;28;20037;-69
2024/01/11 08:47:00;;;;;;;70.53;28.57;;;-2.30;99.90;;;;;;5035567;28;20136;-69
2024/01/11 08:49:25;;;;;;;64.33;28.97;;;-2.30;99.90;;;;;;5041653;28;20033;-68
2024/01/11 08:51:51;;;;;;;63.53;28.93;;;-2.20;99.90;;;;;;5050124;28;20044;-68
2024/01/11 08:54:20;;;;;;;70.13;30.40;;;-2.20;99.90;;;;;;5047383;28;20390;-68
2024/01/11 08:56:46;;;;;;;61.47;28.87;;;-2.20;99.90;;;;;;5041419;28;20034;-68
2024/01/11 08:59:11;;;;;;;68.53;30.07;;;-2.20;99.90;;;;;;5044088;28;20497;-69
2024/01/11 09:01:37;;;;;;;72.63;32.50;;;-2.10;99.90;;;;;;5048772;28;20041;-68
2024/01/11 09:04:04;;;;;;;71.30;31.20;;;-2.10;99.90;;;;;;5042333;28;20042;-68
2024/01/11 09:06:30;;;;;;;66.40;28.97;;;-2.10;99.90;;;;;;5042528;28;20068;-68
2024/01/11 09:08:55;;;;;;;71.50;30.10;;;-2.00;99.90;;;;;;5049416;28;20073;-68
2024/01/11 09:11:21;;;;;;;65.73;28.97;;;-2.10;99.90;;;;;;5040554;28;20032;-68
2024/01/11 09:13:46;;;;;;;67.23;28.90;;;-2.00;99.90;;;;;;5047691;28;20037;-69
2024/01/11 09:16:18;;;;;;;69.97;29.97;;;-1.90;99.90;;;;;;5047860;28;20037;-68
2024/01/11 09:18:44;;;;;;;67.50;27.63;;;-1.90;99.90;;;;;;5039029;28;20041;-68
2024/01/11 09:21:12;;;;;;;65.03;29.33;;;-1.90;99.90;;;;;;5050391;28;20041;-69
2024/01/11 09:23:37;;;;;;;67.03;28.48;;;-1.80;99.90;;;;;;5041699;28;20072;-69
2024/01/11 09:26:03;;;;;;;65.65;28.95;;;-1.80;99.90;;;;;;5049476;28;20506;-69
2024/01/11 09:28:29;;;;;;;71.63;29.98;;;-1.70;99.90;;;;;;5049624;28;20044;-69
2024/01/11 09:30:59;;;;;;;68.85;29.50;;;-1.70;99.90;;;;;;5036495;28;20112;-69
2024/01/11 09:33:25;;;;;;;67.97;31.63;;;-1.70;99.90;;;;;;5040054;28;20082;-69
2024/01/11 09:35:51;;;;;;;69.28;30.23;;;-1.70;99.90;;;;;;5040975;28;20057;-69
2024/01/11 09:38:17;;;;;;;64.78;28.20;;;-1.70;99.90;;;;;;5045665;28;20495;-69
2024/01/11 09:40:42;;;;;;;74.00;30.17;;;-1.60;99.90;;;;;;5049017;28;20483;-69
2024/01/11 09:43:10;;;;;;;71.80;30.48;;;-1.60;99.90;;;;;;5050310;28;20502;-69
2024/01/11 09:45:36;;;;;;;72.22;30.58;;;-1.60;99.90;;;;;;5046688;28;20040;-69
2024/01/11 09:48:03;;;;;;;69.95;29.92;;;-1.50;99.90;;;;;;5038844;28;20441;-69
2024/01/11 09:50:29;;;;;;;65.95;29.27;;;-1.50;99.90;;;;;;5039995;28;20033;-69
2024/01/11 09:52:55;;;;;;;73.70;32.53;;;-1.50;99.90;;;;;;5031467;28;20073;-69
2024/01/11 09:55:21;;;;;;;69.60;30.95;;;-1.40;99.90;;;;;;5038227;28;20073;-69
2024/01/11 09:57:48;;;;;;;68.88;29.80;;;-1.40;99.90;;;;;;5036578;28;20056;-69
2024/01/11 10:00:16;;;;;;;67.50;30.38;;;-1.30;99.90;;;;;;5033095;28;20037;-69
2024/01/11 10:02:42;;;;;;;69.22;30.17;;;-1.30;99.90;;;;;;5043291;28;20079;-69
2024/01/11 10:05:08;;;;;;;69.80;31.23;;;-1.20;99.90;;;;;;5036788;28;20061;-69
2024/01/11 10:07:34;;;;;;;68.63;30.17;;;-1.20;99.90;;;;;;5032126;28;20099;-69
2024/01/11 10:10:00;;;;;;;72.22;29.73;;;-1.10;99.90;;;;;;5033000;28;20530;-69
2024/01/11 10:12:30;;;;;;;70.43;30.48;;;-1.10;99.90;;;;;;5031943;28;20057;-70
2024/01/11 10:15:07;;;;;;;68.63;28.70;;;-1.00;99.90;;;;;;5032247;28;20048;-69
2024/01/11 10:17:32;;;;;;;69.90;29.67;;;-1.00;99.90;;;;;;5031100;28;20045;-70
2024/01/11 10:19:59;;;;;;;69.47;28.58;;;-0.90;99.90;;;;;;5032360;28;20438;-70
2024/01/11 10:22:24;;;;;;;69.53;29.45;;;-0.90;99.90;;;;;;5032681;28;20052;-69
2024/01/11 10:24:50;;;;;;;60.53;28.30;;;-0.80;99.90;;;;;;5032495;28;20041;-69
2024/01/11 10:27:15;;;;;;;66.43;29.55;;;-0.80;99.90;;;;;;5032947;28;20033;-69
2024/01/11 10:29:41;;;;;;;61.45;27.77;;;-0.70;99.90;;;;;;5032557;28;20518;-69
2024/01/11 10:32:07;;;;;;;64.35;28.23;;;-0.70;99.90;;;;;;5033784;28;20087;-69
2024/01/11 10:34:33;;;;;;;63.10;28.10;;;-0.70;99.90;;;;;;5032938;28;20061;-70
2024/01/11 10:36:59;;;;;;;67.28;26.25;;;-0.60;99.90;;;;;;5033029;28;20048;-70
2024/01/11 10:39:27;;;;;;;62.55;26.40;;;-0.60;99.90;;;;;;5033720;28;20026;-70
2024/01/11 10:42:07;;;;;;;68.35;27.67;;;-0.50;99.90;;;;;;5042051;28;20491;-70
2024/01/11 10:44:35;;;;;;;61.40;27.77;;;-0.50;99.90;;;;;;5035676;28;20357;-70
2024/01/11 10:47:03;;;;;;;65.70;27.83;;;-0.50;99.90;;;;;;5044339;28;20038;-70
2024/01/11 10:49:32;;;;;;;59.92;27.88;;;-0.50;99.90;;;;;;5037031;28;20124;-70
2024/01/11 10:52:04;;;;;;;69.60;28.05;;;-0.40;99.90;;;;;;5036975;28;20045;-69
2024/01/11 10:54:31;;;;;;;62.28;27.05;;;-0.40;99.90;;;;;;5037244;28;20033;-70
2024/01/11 10:57:04;;;;;;;62.10;27.25;;;-0.40;99.90;;;;;;5043025;28;20040;-70
2024/01/11 10:59:31;;;;;;;57.17;25.45;;;-0.40;99.90;;;;;;5036612;28;20033;-70
2024/01/11 11:02:02;;;;;;;61.42;26.10;;;-0.30;99.90;;;;;;5038991;28;20048;-70
2024/01/11 11:04:28;;;;;;;58.97;25.75;;;-0.30;99.90;;;;;;5042954;28;20037;-70
2024/01/11 11:06:58;;;;;;;58.75;25.63;;;-0.20;99.90;;;;;;5049372;28;20045;-70
2024/01/11 11:09:25;;;;;;;62.67;26.77;;;-0.20;99.90;;;;;;5051482;28;20041;-70
2024/01/11 11:11:55;;;;;;;60.85;26.77;;;-0.20;99.90;;;;;;5051293;28;20433;-70
2024/01/11 11:14:22;;;;;;;64.85;27.00;;;-0.10;99.90;;;;;;5042703;28;20049;-70
2024/01/11 11:16:48;;;;;;;60.97;26.45;;;-0.10;99.90;;;;;;5042624;28;20036;-70
2024/01/11 11:19:14;;;;;;;62.75;27.77;;;-0.10;99.90;;;;;;5048072;28;20037;-70
2024/01/11 11:21:47;;;;;;;59.95;26.95;;;0.00;99.90;;;;;;5049942;28;20132;-70
2024/01/11 11:24:13;;;;;;;58.80;26.73;;;0.00;99.90;;;;;;5033321;28;20048;-70
2024/01/11 11:26:39;;;;;;;57.67;25.92;;;0.00;99.90;;;;;;5050142;28;20028;-70
2024/01/11 11:29:05;;;;;;;65.05;26.10;;;0.00;99.90;;;;;;5050501;28;20494;-70
2024/01/11 11:31:34;;;;;;;60.50;25.65;;;0.10;99.90;;;;;;5046786;28;20121;-70
2024/01/11 11:34:03;;;;;;;65.60;26.83;;;0.10;99.90;;;;;;5047724;28;20037;-70
2024/01/11 11:36:30;;;;;;;60.15;25.00;;;0.10;99.90;;;;;;5045400;28;20510;-70
2024/01/11 11:39:00;;;;;;;64.50;28.88;;;0.10;99.90;;;;;;5041446;28;20093;-70
2024/01/11 11:41:26;;;;;;;61.42;27.67;;;0.20;99.90;;;;;;5049712;28;20045;-70
2024/01/11 11:43:52;;;;;;;62.78;25.75;;;0.20;99.90;;;;;;5051234;28;20045;-70
2024/01/11 11:46:19;;;;;;;60.70;25.92;;;0.20;99.90;;;;;;5049837;28;20037;-70
2024/01/11 11:48:52;;;;;;;59.67;25.40;;;0.20;99.90;;;;;;5046843;28;20094;-70
2024/01/11 11:51:21;;;;;;;63.55;27.95;;;0.30;99.90;;;;;;5050143;28;20041;-70
2024/01/11 11:53:49;;;;;;;65.22;26.55;;;0.30;99.90;;;;;;5050815;28;20041;-70
2024/01/11 11:56:20;;;;;;;61.13;26.02;;;0.30;99.90;;;;;;5049963;28;20506;-70
2024/01/11 11:58:47;;;;;;;53.05;26.10;;;0.40;99.90;;;;;;5025222;28;20153;-70
2024/01/11 12:01:19;;;;;;;60.90;27.60;;;0.30;99.90;;;;;;5050887;28;20037;-70
2024/01/11 12:03:48;;;;;;;61.72;26.10;;;0.40;99.90;;;;;;5049943;28;20051;-70
2024/01/11 12:06:16;;;;;;;56.30;24.42;;;0.40;99.90;;;;;;5041565;28;20049;-70
2024/01/11 12:08:43;;;;;;;53.42;23.10;;;0.40;99.90;;;;;;5041675;28;20495;-70
2024/01/11 12:11:08;;;;;;;59.47;25.38;;;0.50;99.90;;;;;;5049174;28;20047;-70
2024/01/11 12:13:35;;;;;;;59.83;26.45;;;0.50;99.90;;;;;;5049683;28;20037;-70
2024/01/11 12:16:01;;;;;;;59.88;25.08;;;0.50;99.90;;;;;;5049891;28;20499;-70
2024/01/11 12:18:27;;;;;;;58.35;26.52;;;0.50;99.90;;;;;;5007483;23;20104;-71
2024/01/11 12:20:53;;;;;;;58.10;26.20;;;0.50;99.90;;;;;;5009661;28;20177;-71
2024/01/11 12:23:19;;;;;;;53.65;23.77;;;0.60;99.90;;;;;;5002980;28;20088;-71